Time;durP1;ratioP1;P1;durP2;ratioP2;P2;SDS_P1;SDS_P2;PMS_P1;PMS_P2;Temp;Humidity;BMP_temperature;BMP_pressure;BME280_temperature;BME280_humidity;BME280_pressure;Samples;Min_cycle;Max_cycle;Signal;HPM_P1;HPM_P2
2023/05/22 00:00:30;;;;;;;2.20;0.93;;;17.40;99.90;;;;;;5009732;28;20160;-68
2023/05/22 00:02:57;;;;;;;0.68;0.28;;;17.40;99.90;;;;;;5002225;28;20666;-68
2023/05/22 00:05:23;;;;;;;0.52;0.52;;;17.40;99.90;;;;;;5004002;28;20042;-67
2023/05/22 00:07:49;;;;;;;0.57;0.57;;;17.50;99.90;;;;;;5003332;28;20053;-68
2023/05/22 00:10:14;;;;;;;0.40;0.40;;;17.40;99.90;;;;;;5039032;28;20498;-68
2023/05/22 00:12:40;;;;;;;0.30;0.30;;;17.40;99.90;;;;;;4999360;28;20046;-68
2023/05/22 00:15:06;;;;;;;0.82;0.77;;;17.50;99.90;;;;;;5010391;28;20068;-68
2023/05/22 00:17:32;;;;;;;5.97;2.40;;;17.50;99.90;;;;;;5008852;28;20152;-67
2023/05/22 00:20:07;;;;;;;0.35;0.35;;;17.60;99.90;;;;;;5005072;28;20429;-68
2023/05/22 00:22:36;;;;;;;0.30;0.20;;;17.60;99.90;;;;;;5000956;28;20064;-68
2023/05/22 00:25:02;;;;;;;0.60;0.60;;;17.60;99.90;;;;;;5001395;28;20049;-68
2023/05/22 00:27:28;;;;;;;1.67;1.10;;;17.60;99.90;;;;;;5018105;28;20532;-68
2023/05/22 00:29:54;;;;;;;1.25;1.15;;;17.70;99.90;;;;;;4996968;28;20038;-67
2023/05/22 00:32:19;;;;;;;6.30;2.28;;;17.60;99.90;;;;;;5035688;28;20505;-67
2023/05/22 00:34:45;;;;;;;2.58;1.50;;;17.50;99.90;;;;;;5005640;28;20137;-68
2023/05/22 00:37:10;;;;;;;0.25;0.25;;;17.50;99.90;;;;;;5009611;28;20124;-67
2023/05/22 00:39:36;;;;;;;0.55;0.55;;;17.50;99.90;;;;;;5008152;28;20046;-66
2023/05/22 00:42:02;;;;;;;0.82;0.82;;;17.40;99.90;;;;;;4998551;28;20038;-66
2023/05/22 00:44:28;;;;;;;0.32;0.32;;;17.40;99.90;;;;;;5004531;28;20052;-66
2023/05/22 00:46:54;;;;;;;1.23;1.13;;;17.40;99.90;;;;;;5006849;28;20046;-65
2023/05/22 00:49:20;;;;;;;0.57;0.57;;;17.30;99.90;;;;;;5008122;28;20045;-66
2023/05/22 00:51:46;;;;;;;0.90;0.90;;;17.30;99.90;;;;;;5001964;28;20042;-65
2023/05/22 00:54:12;;;;;;;1.40;0.82;;;17.30;99.90;;;;;;5008285;28;20046;-66
2023/05/22 00:56:39;;;;;;;1.58;1.48;;;17.30;99.90;;;;;;5008598;28;20297;-66
2023/05/22 00:59:04;;;;;;;0.40;0.40;;;17.30;99.90;;;;;;4999649;28;20042;-65
2023/05/22 01:01:32;;;;;;;1.58;1.33;;;17.30;99.90;;;;;;5003824;28;20117;-66
2023/05/22 01:04:00;;;;;;;3.10;1.75;;;17.30;99.90;;;;;;5000370;28;20084;-66
2023/05/22 01:06:26;;;;;;;1.10;1.00;;;17.20;99.90;;;;;;5003995;28;20038;-66
2023/05/22 01:08:52;;;;;;;1.00;1.00;;;17.20;99.90;;;;;;5002355;28;20042;-66
2023/05/22 01:11:46;;;;;;;1.63;1.52;;;17.20;99.90;;;;;;5005232;28;20420;-66
2023/05/22 01:14:31;;;;;;;1.50;0.98;;;17.20;99.90;;;;;;5006285;28;20050;-66
2023/05/22 01:17:23;;;;;;;2.78;0.98;;;17.20;99.90;;;;;;5001794;28;20046;-65
2023/05/22 01:20:13;;;;;;;1.58;1.48;;;17.20;99.90;;;;;;5000304;28;20060;-66
2023/05/22 01:23:16;;;;;;;0.63;0.63;;;17.10;99.90;;;;;;5003945;28;20041;-66
2023/05/22 01:26:20;;;;;;;1.85;1.35;;;17.10;99.90;;;;;;4995970;28;20474;-67
2023/05/22 01:29:12;;;;;;;3.17;2.92;;;17.10;99.90;;;;;;5001854;28;20065;-66
2023/05/22 01:31:42;;;;;;;0.73;0.73;;;17.10;99.90;;;;;;5007515;28;20483;-66
2023/05/22 01:34:10;;;;;;;1.30;1.13;;;17.10;99.90;;;;;;5006601;28;20046;-66
2023/05/22 01:36:37;;;;;;;0.95;0.95;;;17.00;99.90;;;;;;4999534;28;20046;-66
2023/05/22 01:39:05;;;;;;;0.65;0.65;;;17.10;99.90;;;;;;5005340;28;20113;-67
2023/05/22 01:41:32;;;;;;;1.58;1.02;;;17.20;99.90;;;;;;4998057;28;20430;-67
2023/05/22 01:43:59;;;;;;;0.63;0.45;;;17.20;99.90;;;;;;4997846;28;20129;-66
2023/05/22 01:46:29;;;;;;;1.05;0.93;;;17.20;99.90;;;;;;5009974;28;20045;-66
2023/05/22 01:48:55;;;;;;;0.40;0.40;;;17.20;99.90;;;;;;4999917;28;20074;-67
2023/05/22 01:51:31;;;;;;;1.70;0.82;;;17.20;99.90;;;;;;4995789;28;20064;-67
2023/05/22 01:54:04;;;;;;;1.15;0.80;;;17.20;99.90;;;;;;5008620;28;20048;-67
2023/05/22 01:56:47;;;;;;;0.88;0.55;;;17.20;99.90;;;;;;5004258;28;20054;-67
2023/05/22 01:59:19;;;;;;;0.20;0.20;;;17.20;99.90;;;;;;5000090;28;20427;-66
2023/05/22 02:01:47;;;;;;;1.55;1.45;;;17.20;99.90;;;;;;5006375;28;20054;-66
2023/05/22 02:04:17;;;;;;;1.35;1.25;;;17.20;99.90;;;;;;5002297;28;20118;-67
2023/05/22 02:06:44;;;;;;;1.30;0.80;;;17.20;99.90;;;;;;5004043;28;20490;-66
2023/05/22 02:09:11;;;;;;;0.52;0.43;;;17.30;99.90;;;;;;5001106;28;20054;-66
2023/05/22 02:11:39;;;;;;;1.33;0.95;;;17.20;99.90;;;;;;5005408;28;20054;-66
2023/05/22 02:14:05;;;;;;;0.70;0.47;;;17.20;99.90;;;;;;5002774;28;20139;-67
2023/05/22 02:16:30;;;;;;;1.05;1.05;;;17.20;99.90;;;;;;5013036;28;20212;-67
2023/05/22 02:19:04;;;;;;;1.00;0.75;;;17.20;99.90;;;;;;5007334;28;20050;-67
2023/05/22 02:21:33;;;;;;;0.60;0.60;;;17.20;99.90;;;;;;5009515;28;20136;-66
2023/05/22 02:23:59;;;;;;;0.90;0.85;;;17.20;99.90;;;;;;4998564;28;20363;-67
2023/05/22 02:26:25;;;;;;;1.48;1.00;;;17.10;99.90;;;;;;5009465;28;20050;-67
2023/05/22 02:28:50;;;;;;;0.43;0.43;;;17.10;99.90;;;;;;5007760;28;20054;-66
2023/05/22 02:31:17;;;;;;;1.00;1.00;;;17.10;99.90;;;;;;5005270;28;20050;-67
2023/05/22 02:33:43;;;;;;;1.75;1.13;;;17.10;99.90;;;;;;5004014;28;20070;-66
2023/05/22 02:36:11;;;;;;;0.47;0.47;;;17.10;99.90;;;;;;5009599;28;20052;-66
2023/05/22 02:38:40;;;;;;;9.25;1.83;;;17.20;99.90;;;;;;5003327;28;20050;-67
2023/05/22 02:41:07;;;;;;;1.75;0.77;;;17.20;99.90;;;;;;5005771;28;20054;-67
2023/05/22 02:43:32;;;;;;;2.72;0.57;;;17.20;99.90;;;;;;5002077;28;20600;-67
2023/05/22 02:45:58;;;;;;;6.18;1.05;;;17.10;99.90;;;;;;5034291;28;20085;-67
2023/05/22 02:48:24;;;;;;;0.70;0.70;;;17.10;99.90;;;;;;5006005;28;20046;-67
2023/05/22 02:50:49;;;;;;;0.63;0.63;;;17.10;99.90;;;;;;5008637;28;20053;-67
2023/05/22 02:53:15;;;;;;;0.13;0.13;;;17.00;99.90;;;;;;4998314;28;20687;-67
2023/05/22 02:55:42;;;;;;;2.20;1.13;;;17.10;99.90;;;;;;5011446;28;20045;-67
2023/05/22 02:58:10;;;;;;;1.13;1.13;;;17.10;99.90;;;;;;5009162;28;20478;-67
2023/05/22 03:00:38;;;;;;;0.30;0.30;;;17.00;99.90;;;;;;5004238;28;20042;-67
2023/05/22 03:03:05;;;;;;;1.33;1.25;;;17.00;99.90;;;;;;5009306;28;20121;-67
2023/05/22 03:05:31;;;;;;;0.82;0.80;;;17.00;99.90;;;;;;5004023;28;20501;-67
2023/05/22 03:07:57;;;;;;;0.88;0.85;;;17.00;99.90;;;;;;5006260;28;20030;-67
2023/05/22 03:10:23;;;;;;;0.75;0.75;;;17.00;99.90;;;;;;5013153;28;20485;-67
2023/05/22 03:12:52;;;;;;;1.00;0.93;;;16.90;99.90;;;;;;5010870;28;20042;-68
2023/05/22 03:15:18;;;;;;;4.88;2.60;;;16.90;99.90;;;;;;5004147;28;20045;-67
2023/05/22 03:17:44;;;;;;;1.23;1.13;;;16.90;99.90;;;;;;5018995;28;20046;-67
2023/05/22 03:20:15;;;;;;;0.68;0.68;;;16.80;99.90;;;;;;5007294;28;20042;-68
2023/05/22 03:22:42;;;;;;;2.00;1.88;;;16.80;99.90;;;;;;5009329;28;20401;-67
2023/05/22 03:25:08;;;;;;;1.88;1.08;;;16.80;99.90;;;;;;5034294;28;20050;-68
2023/05/22 03:27:34;;;;;;;1.75;1.45;;;16.80;99.90;;;;;;5003313;28;20050;-68
2023/05/22 03:30:01;;;;;;;1.30;1.17;;;16.70;99.90;;;;;;5020549;28;20039;-68
2023/05/22 03:32:26;;;;;;;1.88;1.45;;;16.70;99.90;;;;;;5007315;28;20042;-68
2023/05/22 03:34:52;;;;;;;0.77;0.73;;;16.50;99.90;;;;;;5010900;28;20449;-68
2023/05/22 03:37:18;;;;;;;0.35;0.35;;;16.50;99.90;;;;;;5008911;28;20034;-68
2023/05/22 03:39:43;;;;;;;0.50;0.50;;;16.50;99.90;;;;;;5001151;28;20050;-69
2023/05/22 03:42:09;;;;;;;0.70;0.70;;;16.40;99.90;;;;;;5005456;28;20049;-69
2023/05/22 03:44:34;;;;;;;1.98;1.38;;;16.40;99.90;;;;;;5012539;28;20030;-68
2023/05/22 03:47:00;;;;;;;3.13;1.20;;;16.40;99.90;;;;;;5010093;28;20060;-69
2023/05/22 03:49:25;;;;;;;1.02;0.93;;;16.30;99.90;;;;;;5006811;28;20379;-69
2023/05/22 03:51:51;;;;;;;2.13;2.00;;;16.30;99.90;;;;;;5005769;28;20050;-68
2023/05/22 03:54:17;;;;;;;0.47;0.47;;;16.30;99.90;;;;;;5015993;28;20033;-68
2023/05/22 03:56:42;;;;;;;1.15;1.05;;;16.30;99.90;;;;;;5002920;28;20042;-68
2023/05/22 03:59:08;;;;;;;1.17;0.95;;;16.30;99.90;;;;;;5008298;28;20049;-68
2023/05/22 04:01:37;;;;;;;1.55;0.90;;;16.30;99.90;;;;;;5011345;28;20038;-68
2023/05/22 04:04:04;;;;;;;3.53;1.67;;;16.30;99.90;;;;;;5010665;28;20054;-69
2023/05/22 04:06:31;;;;;;;2.80;1.25;;;16.30;99.90;;;;;;5000004;28;20490;-69
2023/05/22 04:08:57;;;;;;;0.55;0.55;;;16.30;99.90;;;;;;5007135;28;20041;-68
2023/05/22 04:11:23;;;;;;;1.20;1.08;;;16.30;99.90;;;;;;5003640;28;20046;-69
2023/05/22 04:13:49;;;;;;;1.15;1.00;;;16.30;99.90;;;;;;5007760;28;20397;-69
2023/05/22 04:16:16;;;;;;;1.23;1.08;;;16.30;99.90;;;;;;5007741;28;20041;-69
2023/05/22 04:18:41;;;;;;;0.40;0.40;;;16.30;99.90;;;;;;5003824;28;20030;-69
2023/05/22 04:21:08;;;;;;;2.63;1.90;;;16.30;99.90;;;;;;5005463;28;20092;-68
2023/05/22 04:23:34;;;;;;;2.33;1.52;;;16.30;99.90;;;;;;5007953;28;20486;-69
2023/05/22 04:26:01;;;;;;;4.28;0.70;;;16.40;99.90;;;;;;5007941;28;20050;-69
2023/05/22 04:28:29;;;;;;;6.15;2.15;;;16.30;99.90;;;;;;5009020;28;20093;-69
2023/05/22 04:30:56;;;;;;;5.38;1.40;;;16.40;99.90;;;;;;5004145;28;20034;-69
2023/05/22 04:33:23;;;;;;;2.35;1.40;;;16.40;99.90;;;;;;5007273;28;20172;-69
2023/05/22 04:35:50;;;;;;;4.15;1.73;;;16.40;99.90;;;;;;5009062;28;20054;-69
2023/05/22 04:38:17;;;;;;;1.58;1.48;;;16.40;99.90;;;;;;5002025;28;20109;-69
2023/05/22 04:40:43;;;;;;;1.45;1.00;;;16.40;99.90;;;;;;5003483;28;20047;-68
2023/05/22 04:43:10;;;;;;;0.75;0.75;;;16.40;99.90;;;;;;5001652;28;20497;-69
2023/05/22 04:45:36;;;;;;;1.88;1.30;;;16.40;99.90;;;;;;5000352;28;20038;-68
2023/05/22 04:48:01;;;;;;;3.17;1.35;;;16.40;99.90;;;;;;5005382;28;20104;-68
2023/05/22 04:50:31;;;;;;;0.90;0.80;;;16.50;99.90;;;;;;5000150;28;20050;-68
2023/05/22 04:52:58;;;;;;;0.57;0.25;;;16.40;99.90;;;;;;5009985;28;20070;-68
2023/05/22 04:55:24;;;;;;;6.78;3.75;;;16.40;99.90;;;;;;5003312;28;20050;-68
2023/05/22 04:57:51;;;;;;;1.45;0.88;;;16.40;99.90;;;;;;4997296;28;20054;-68
2023/05/22 05:00:17;;;;;;;1.08;1.08;;;16.30;99.90;;;;;;5003771;28;20077;-68
2023/05/22 05:02:43;;;;;;;0.00;0.00;;;16.40;99.90;;;;;;5003723;28;20084;-68
2023/05/22 05:05:09;;;;;;;0.38;0.38;;;16.30;99.90;;;;;;4999822;28;20050;-68
2023/05/22 05:07:38;;;;;;;0.57;0.40;;;16.30;99.90;;;;;;5007458;28;20038;-68
2023/05/22 05:10:05;;;;;;;0.52;0.52;;;16.30;99.90;;;;;;5002446;28;20057;-68
2023/05/22 05:12:30;;;;;;;0.98;0.98;;;16.30;99.90;;;;;;4998001;28;20731;-68
2023/05/22 05:14:56;;;;;;;2.00;0.65;;;16.20;99.90;;;;;;4996069;28;20053;-68
2023/05/22 05:17:22;;;;;;;0.55;0.55;;;16.30;99.90;;;;;;4997323;28;20045;-68
2023/05/22 05:19:48;;;;;;;0.57;0.52;;;16.30;99.90;;;;;;5002773;28;20050;-68
2023/05/22 05:22:13;;;;;;;0.75;0.70;;;16.30;99.90;;;;;;5007422;28;20072;-68
2023/05/22 05:24:39;;;;;;;2.72;1.40;;;16.40;99.90;;;;;;5002227;28;20049;-68
2023/05/22 05:27:05;;;;;;;1.33;1.23;;;16.40;99.90;;;;;;5007682;28;20402;-68
2023/05/22 05:29:30;;;;;;;0.60;0.60;;;16.40;99.90;;;;;;5003033;28;20398;-68
2023/05/22 05:31:56;;;;;;;0.40;0.40;;;16.40;99.90;;;;;;5015683;28;20395;-68
2023/05/22 05:34:22;;;;;;;0.93;0.85;;;16.50;99.90;;;;;;5002702;28;20084;-68
2023/05/22 05:36:47;;;;;;;0.15;0.15;;;16.40;99.90;;;;;;5006488;28;20072;-69
2023/05/22 05:39:13;;;;;;;0.30;0.30;;;16.40;99.90;;;;;;5003231;28;20053;-69
2023/05/22 05:41:38;;;;;;;2.42;1.50;;;16.40;99.90;;;;;;5002653;28;20045;-68
2023/05/22 05:44:04;;;;;;;4.20;1.58;;;16.50;99.90;;;;;;5003015;28;20160;-68
2023/05/22 05:46:29;;;;;;;0.30;0.30;;;16.50;99.90;;;;;;4999163;28;20045;-68
2023/05/22 05:48:56;;;;;;;0.10;0.10;;;16.50;99.90;;;;;;4995405;28;20164;-68
2023/05/22 05:51:22;;;;;;;0.10;0.10;;;16.50;99.90;;;;;;5000825;28;20056;-68
2023/05/22 05:53:48;;;;;;;0.65;0.65;;;16.60;99.90;;;;;;5005243;28;20252;-68
2023/05/22 05:56:14;;;;;;;0.68;0.50;;;16.60;99.90;;;;;;4996961;28;20052;-69
2023/05/22 05:58:39;;;;;;;0.20;0.15;;;16.60;99.90;;;;;;5001746;28;20424;-69
2023/05/22 06:01:05;;;;;;;3.13;0.50;;;16.70;99.90;;;;;;5004024;28;20047;-68
2023/05/22 06:03:31;;;;;;;0.08;0.08;;;16.70;99.90;;;;;;5002658;28;20069;-68
2023/05/22 06:05:58;;;;;;;0.00;0.00;;;16.70;99.90;;;;;;5002239;28;20054;-68
2023/05/22 06:08:23;;;;;;;0.60;0.60;;;16.70;99.90;;;;;;4998527;28;20054;-68
2023/05/22 06:10:49;;;;;;;4.82;0.43;;;16.70;99.90;;;;;;5004590;28;20046;-67
2023/05/22 06:13:14;;;;;;;28.08;1.98;;;16.70;99.90;;;;;;4996360;28;20112;-68
2023/05/22 06:15:40;;;;;;;0.10;0.10;;;16.60;99.90;;;;;;4995944;28;20042;-67
2023/05/22 06:18:05;;;;;;;0.10;0.10;;;16.50;99.90;;;;;;5036676;28;20084;-67
2023/05/22 06:20:31;;;;;;;0.57;0.57;;;16.50;99.90;;;;;;5005302;28;20533;-68
2023/05/22 06:22:57;;;;;;;0.17;0.17;;;16.50;99.90;;;;;;5006804;28;20046;-67
2023/05/22 06:25:24;;;;;;;0.25;0.25;;;16.50;99.90;;;;;;5003198;28;20548;-67
2023/05/22 06:27:50;;;;;;;0.65;0.65;;;16.40;99.90;;;;;;5018235;28;20057;-67
2023/05/22 06:30:16;;;;;;;1.25;0.63;;;16.40;99.90;;;;;;4999786;28;20057;-67
2023/05/22 06:32:41;;;;;;;4.93;1.58;;;16.40;99.90;;;;;;5003574;28;20141;-67
2023/05/22 06:35:08;;;;;;;4.45;0.90;;;16.40;99.90;;;;;;4995054;28;20042;-68
2023/05/22 06:37:35;;;;;;;0.30;0.30;;;16.40;99.90;;;;;;5004423;28;20057;-67
2023/05/22 06:40:01;;;;;;;0.10;0.10;;;16.40;99.90;;;;;;5007780;28;20056;-67
2023/05/22 06:42:26;;;;;;;0.95;0.95;;;16.40;99.90;;;;;;4994599;28;20050;-67
2023/05/22 06:44:52;;;;;;;0.80;0.35;;;16.40;99.90;;;;;;5001187;28;20971;-68
2023/05/22 06:47:18;;;;;;;0.45;0.30;;;16.40;99.90;;;;;;5000306;28;20065;-67
2023/05/22 06:49:43;;;;;;;0.00;0.00;;;16.40;99.90;;;;;;5005180;28;20463;-68
2023/05/22 06:52:09;;;;;;;0.75;0.75;;;16.50;99.90;;;;;;4990874;28;20413;-68
2023/05/22 06:54:35;;;;;;;0.95;0.90;;;16.50;99.90;;;;;;5005429;28;20046;-66
2023/05/22 06:57:02;;;;;;;1.55;0.65;;;16.50;99.90;;;;;;5006774;28;20107;-67
2023/05/22 06:59:29;;;;;;;0.20;0.20;;;16.50;99.90;;;;;;4998078;28;20128;-67
2023/05/22 07:01:54;;;;;;;1.77;1.13;;;16.60;99.90;;;;;;5002786;28;20065;-67
2023/05/22 07:04:20;;;;;;;0.35;0.35;;;16.70;99.90;;;;;;5005232;28;20030;-67
2023/05/22 07:06:47;;;;;;;0.45;0.45;;;16.60;99.90;;;;;;5022519;28;20492;-68
2023/05/22 07:09:14;;;;;;;0.10;0.10;;;16.70;99.90;;;;;;5009147;28;20038;-67
2023/05/22 07:11:41;;;;;;;10.00;0.77;;;16.80;99.90;;;;;;5012103;28;20481;-67
2023/05/22 07:14:07;;;;;;;0.60;0.60;;;16.90;99.90;;;;;;5009776;28;20397;-67
2023/05/22 07:16:33;;;;;;;0.57;0.57;;;16.90;99.90;;;;;;5005170;28;20037;-67
2023/05/22 07:18:58;;;;;;;0.40;0.40;;;16.90;99.90;;;;;;5026631;28;20437;-68
2023/05/22 07:21:24;;;;;;;0.20;0.20;;;16.90;99.90;;;;;;5033190;28;20046;-67
2023/05/22 07:23:51;;;;;;;0.32;0.32;;;16.90;99.90;;;;;;5003691;28;20042;-67
2023/05/22 07:26:16;;;;;;;0.55;0.55;;;16.90;99.90;;;;;;4998091;28;20186;-68
2023/05/22 07:28:42;;;;;;;0.38;0.38;;;17.00;99.90;;;;;;5010575;28;20113;-68
2023/05/22 07:31:07;;;;;;;0.20;0.20;;;17.00;99.90;;;;;;5010397;28;20061;-67
2023/05/22 07:33:33;;;;;;;0.68;0.50;;;17.10;99.90;;;;;;5003910;28;20053;-66
2023/05/22 07:35:58;;;;;;;0.25;0.25;;;17.10;99.90;;;;;;4997419;28;20049;-67
2023/05/22 07:38:24;;;;;;;0.35;0.35;;;17.20;99.90;;;;;;5007225;28;20397;-67
2023/05/22 07:40:49;;;;;;;0.10;0.10;;;17.30;99.90;;;;;;5007216;28;20045;-67
2023/05/22 07:43:15;;;;;;;0.45;0.45;;;17.40;99.90;;;;;;5004001;28;20048;-67
2023/05/22 07:45:42;;;;;;;0.35;0.30;;;17.40;99.90;;;;;;5007857;28;20394;-68
2023/05/22 07:48:08;;;;;;;2.40;1.10;;;17.50;99.90;;;;;;5003979;28;20045;-68
2023/05/22 07:50:34;;;;;;;0.10;0.10;;;17.50;99.90;;;;;;5001197;28;20049;-68
2023/05/22 07:52:59;;;;;;;0.45;0.38;;;17.50;99.90;;;;;;5003289;28;20528;-68
2023/05/22 07:55:25;;;;;;;1.00;0.55;;;17.50;99.90;;;;;;5009603;28;20872;-67
2023/05/22 07:57:51;;;;;;;0.40;0.40;;;17.60;99.90;;;;;;5008360;28;20200;-67
2023/05/22 08:00:18;;;;;;;2.30;1.05;;;17.60;99.90;;;;;;5005591;28;20045;-67
2023/05/22 08:02:43;;;;;;;0.28;0.28;;;17.60;99.90;;;;;;5000683;28;20038;-68
2023/05/22 08:05:09;;;;;;;6.85;1.55;;;17.60;99.90;;;;;;5009664;28;20045;-68
2023/05/22 08:07:35;;;;;;;0.00;0.00;;;17.60;99.90;;;;;;5004463;28;20748;-67
2023/05/22 08:10:12;;;;;;;1.00;0.90;;;17.60;99.90;;;;;;5003309;28;20046;-67
2023/05/22 08:12:37;;;;;;;0.05;0.05;;;17.60;99.90;;;;;;5009249;28;20038;-68
2023/05/22 08:15:03;;;;;;;0.38;0.30;;;17.60;99.90;;;;;;5004261;28;20042;-67
2023/05/22 08:17:29;;;;;;;0.35;0.32;;;17.60;99.90;;;;;;5028821;28;20172;-67
2023/05/22 08:19:55;;;;;;;3.90;1.35;;;17.60;99.90;;;;;;4999723;28;20569;-67
2023/05/22 08:22:20;;;;;;;1.25;1.15;;;17.70;99.90;;;;;;5003492;28;20386;-68
2023/05/22 08:24:46;;;;;;;0.47;0.47;;;17.70;99.90;;;;;;5005970;28;20128;-68
2023/05/22 08:27:11;;;;;;;0.50;0.50;;;17.70;99.90;;;;;;5008095;28;20409;-68
2023/05/22 08:29:37;;;;;;;1.17;0.85;;;17.80;99.90;;;;;;5002666;28;20093;-68
2023/05/22 08:32:03;;;;;;;0.20;0.20;;;17.80;99.90;;;;;;5008622;28;20052;-68
2023/05/22 08:34:28;;;;;;;1.88;1.00;;;17.80;99.90;;;;;;5008397;28;20069;-68
2023/05/22 08:36:54;;;;;;;0.52;0.52;;;17.80;99.90;;;;;;5007314;28;20068;-68
2023/05/22 08:39:19;;;;;;;0.20;0.20;;;17.90;99.90;;;;;;5009226;28;20382;-68
2023/05/22 08:41:46;;;;;;;0.00;0.00;;;17.90;99.90;;;;;;5000946;28;20192;-68
2023/05/22 08:44:12;;;;;;;5.35;0.75;;;17.80;99.90;;;;;;4999135;28;20076;-68
2023/05/22 08:46:40;;;;;;;0.93;0.73;;;17.80;99.90;;;;;;5000091;28;20116;-68
2023/05/22 08:49:08;;;;;;;0.10;0.10;;;17.90;99.90;;;;;;5003584;28;20044;-68
2023/05/22 08:51:37;;;;;;;0.63;0.47;;;17.90;99.90;;;;;;5008352;28;20068;-68
2023/05/22 08:54:06;;;;;;;0.13;0.10;;;18.00;99.90;;;;;;5003391;28;20073;-68
2023/05/22 08:56:33;;;;;;;0.10;0.10;;;18.00;99.90;;;;;;5005513;28;20038;-68
2023/05/22 08:59:00;;;;;;;0.17;0.17;;;18.00;99.90;;;;;;5005573;28;20493;-68
2023/05/22 09:01:30;;;;;;;0.10;0.10;;;18.20;99.90;;;;;;5008677;28;20046;-68
2023/05/22 09:04:00;;;;;;;0.30;0.30;;;18.30;99.90;;;;;;5009648;28;20030;-68
2023/05/22 09:06:28;;;;;;;0.55;0.55;;;18.40;99.90;;;;;;5005827;28;20094;-68
2023/05/22 09:08:54;;;;;;;0.20;0.20;;;18.60;99.90;;;;;;5009365;28;20041;-68
2023/05/22 09:11:20;;;;;;;0.10;0.10;;;18.70;99.90;;;;;;5010622;28;20050;-68
2023/05/22 09:13:46;;;;;;;0.10;0.10;;;18.80;99.90;;;;;;5002160;28;20033;-68
2023/05/22 09:16:13;;;;;;;0.45;0.45;;;18.80;99.90;;;;;;4995264;28;20545;-69
2023/05/22 09:18:39;;;;;;;0.00;0.00;;;18.90;99.90;;;;;;4998271;28;20038;-69
2023/05/22 09:21:06;;;;;;;0.00;0.00;;;18.90;99.90;;;;;;5022866;28;20041;-69
2023/05/22 09:23:32;;;;;;;0.20;0.20;;;18.90;99.90;;;;;;5018515;28;20065;-68
2023/05/22 09:25:59;;;;;;;0.10;0.10;;;19.00;99.90;;;;;;5002858;28;20478;-68
2023/05/22 09:28:26;;;;;;;0.10;0.10;;;19.10;99.90;;;;;;4995114;28;20092;-68
2023/05/22 09:30:53;;;;;;;0.20;0.20;;;19.10;99.90;;;;;;5008788;28;20064;-69
2023/05/22 09:33:20;;;;;;;0.30;0.30;;;19.00;99.90;;;;;;5014201;28;20133;-68
2023/05/22 09:35:47;;;;;;;0.05;0.05;;;19.10;99.90;;;;;;5037341;28;20474;-69
2023/05/22 09:38:13;;;;;;;0.00;0.00;;;19.10;99.90;;;;;;5005699;28;20088;-69
2023/05/22 09:40:40;;;;;;;0.20;0.20;;;19.00;99.90;;;;;;5001249;28;20050;-70
2023/05/22 09:43:10;;;;;;;0.20;0.20;;;18.90;99.90;;;;;;5002784;28;20049;-69
2023/05/22 09:45:37;;;;;;;0.10;0.10;;;19.00;99.90;;;;;;5000305;28;20061;-69
2023/05/22 09:48:04;;;;;;;0.22;0.15;;;18.90;99.90;;;;;;5038335;28;20534;-69
2023/05/22 09:50:30;;;;;;;0.10;0.10;;;18.90;99.90;;;;;;5003560;28;20379;-69
2023/05/22 09:52:58;;;;;;;0.10;0.10;;;18.90;99.90;;;;;;5007612;28;20116;-69
2023/05/22 09:55:25;;;;;;;0.00;0.00;;;18.90;99.90;;;;;;5002928;28;20097;-70
2023/05/22 09:57:53;;;;;;;0.08;0.08;;;19.00;99.90;;;;;;4999667;28;20042;-71
2023/05/22 10:00:19;;;;;;;0.65;0.65;;;19.10;99.90;;;;;;5017567;28;20073;-70
2023/05/22 10:03:02;;;;;;;0.60;0.60;;;19.20;99.90;;;;;;5008279;28;20100;-70
2023/05/22 10:05:32;;;;;;;0.32;0.32;;;19.40;99.90;;;;;;4995788;28;20052;-71
2023/05/22 10:08:26;;;;;;;0.00;0.00;;;19.90;99.90;;;;;;4990705;28;20501;-69
2023/05/22 10:10:52;;;;;;;0.90;0.47;;;20.00;99.90;;;;;;4998165;28;20065;-70
2023/05/22 10:13:19;;;;;;;0.30;0.30;;;20.10;99.90;;;;;;5004040;28;20046;-69
2023/05/22 10:15:47;;;;;;;0.20;0.20;;;20.20;99.90;;;;;;5000174;28;20038;-69
2023/05/22 10:18:14;;;;;;;0.90;0.80;;;20.30;99.90;;;;;;4996722;28;20049;-71
2023/05/22 10:20:41;;;;;;;0.10;0.10;;;20.40;99.90;;;;;;5008461;28;20164;-71
2023/05/22 10:23:08;;;;;;;0.30;0.30;;;20.40;99.90;;;;;;4998747;28;20053;-70
2023/05/22 10:25:36;;;;;;;0.13;0.13;;;20.40;99.90;;;;;;5005266;28;20532;-69
2023/05/22 10:28:03;;;;;;;0.13;0.13;;;20.60;99.90;;;;;;5001519;28;20068;-70
2023/05/22 10:30:41;;;;;;;0.08;0.08;;;20.70;99.90;;;;;;5012124;28;20045;-70
2023/05/22 10:33:16;;;;;;;0.95;0.43;;;20.70;99.90;;;;;;5000656;28;20046;-71
2023/05/22 10:35:51;;;;;;;0.63;0.30;;;20.60;99.90;;;;;;5005434;28;20048;-70
2023/05/22 10:39:03;;;;;;;0.10;0.10;;;20.80;99.90;;;;;;5003127;28;20042;-70
2023/05/22 10:41:30;;;;;;;0.20;0.20;;;20.90;99.90;;;;;;5038093;28;20062;-68
2023/05/22 10:43:56;;;;;;;0.00;0.00;;;21.20;99.90;;;;;;4998225;28;20054;-68
2023/05/22 10:46:22;;;;;;;3.10;0.65;;;21.40;99.90;;;;;;5012051;28;20038;-68
2023/05/22 10:48:50;;;;;;;0.68;0.68;;;21.60;99.90;;;;;;5011760;28;20064;-68
2023/05/22 10:51:21;;;;;;;2.63;0.65;;;21.80;99.90;;;;;;5007875;28;20088;-68
2023/05/22 10:53:54;;;;;;;0.30;0.30;;;22.00;99.90;;;;;;5005330;28;20486;-68
2023/05/22 10:56:20;;;;;;;0.47;0.47;;;22.00;99.90;;;;;;5012832;28;20117;-68
2023/05/22 10:58:56;;;;;;;1.05;0.95;;;22.40;99.90;;;;;;5001131;28;20046;-68
2023/05/22 11:01:24;;;;;;;0.73;0.73;;;22.50;99.90;;;;;;5001533;28;20041;-68
2023/05/22 11:04:01;;;;;;;2.95;0.40;;;22.30;99.90;;;;;;5007619;28;20050;-68
2023/05/22 11:06:37;;;;;;;0.22;0.22;;;22.50;99.90;;;;;;4998471;28;20066;-68
2023/05/22 11:09:31;;;;;;;1.40;0.70;;;22.40;99.90;;;;;;5007649;28;20498;-68
2023/05/22 11:12:15;;;;;;;;;;;22.80;99.90;;;;;;5008013;28;20038;-69
2023/05/22 11:14:52;;;;;;;0.25;0.25;;;22.90;99.90;;;;;;5003313;28;19976;-68
2023/05/22 11:17:29;;;;;;;0.25;0.25;;;23.10;99.90;;;;;;5000956;28;20521;-68
2023/05/22 11:19:59;;;;;;;0.40;0.40;;;23.00;99.90;;;;;;5006557;28;20053;-69
2023/05/22 11:22:36;;;;;;;1.67;0.45;;;23.00;99.90;;;;;;5006170;28;20038;-68
2023/05/22 11:25:05;;;;;;;1.27;0.57;;;23.10;99.90;;;;;;5011125;28;20065;-68
2023/05/22 11:27:31;;;;;;;0.32;0.32;;;22.80;99.90;;;;;;5010318;28;20141;-68
2023/05/22 11:29:58;;;;;;;0.90;0.90;;;22.80;99.90;;;;;;5004897;28;20129;-68
2023/05/22 11:32:24;;;;;;;0.10;0.10;;;23.00;99.90;;;;;;5010571;28;20101;-68
2023/05/22 11:34:50;;;;;;;0.28;0.10;;;23.30;99.90;;;;;;5011805;28;20116;-68
2023/05/22 11:37:20;;;;;;;0.80;0.47;;;23.50;99.90;;;;;;5007090;28;20497;-68
2023/05/22 11:39:51;;;;;;;0.10;0.10;;;23.60;99.90;;;;;;5008570;28;20069;-68
2023/05/22 11:42:18;;;;;;;0.10;0.10;;;23.40;99.90;;;;;;5008124;28;20714;-67
2023/05/22 11:44:43;;;;;;;0.40;0.40;;;23.60;99.90;;;;;;5012575;28;20046;-68
2023/05/22 11:47:09;;;;;;;0.13;0.13;;;23.60;99.90;;;;;;4993229;28;20053;-70
2023/05/22 11:49:39;;;;;;;0.28;0.28;;;23.70;99.90;;;;;;5002313;28;20120;-69
2023/05/22 11:52:05;;;;;;;0.35;0.35;;;23.80;99.90;;;;;;5004681;28;20116;-69
2023/05/22 11:54:31;;;;;;;0.20;0.20;;;23.90;99.90;;;;;;5001668;28;20474;-68
2023/05/22 11:56:57;;;;;;;0.20;0.20;;;23.90;99.90;;;;;;5004746;28;20042;-69
2023/05/22 11:59:23;;;;;;;0.55;0.50;;;24.10;99.90;;;;;;5003179;28;20486;-69
2023/05/22 12:01:51;;;;;;;0.17;0.17;;;24.20;99.90;;;;;;5007911;28;20048;-68
2023/05/22 12:04:17;;;;;;;0.05;0.05;;;24.40;99.90;;;;;;5003071;28;20068;-68
2023/05/22 12:06:43;;;;;;;0.47;0.47;;;24.50;99.90;;;;;;5030013;28;20371;-68
2023/05/22 12:09:09;;;;;;;2.08;0.73;;;24.70;99.90;;;;;;5010600;28;20085;-68
2023/05/22 12:11:37;;;;;;;0.98;0.60;;;24.60;99.90;;;;;;5010073;28;20045;-69
2023/05/22 12:14:03;;;;;;;0.30;0.30;;;24.90;99.90;;;;;;5000672;28;20046;-69
2023/05/22 12:16:35;;;;;;;0.68;0.63;;;25.10;99.90;;;;;;4998689;28;20046;-68
2023/05/22 12:19:07;;;;;;;0.10;0.10;;;25.30;99.90;;;;;;5006331;28;20052;-69
2023/05/22 12:21:34;;;;;;;0.45;0.45;;;24.70;99.90;;;;;;4996491;28;20042;-69
2023/05/22 12:24:03;;;;;;;2.28;0.65;;;24.20;99.90;;;;;;4997569;28;20385;-69
2023/05/22 12:26:29;;;;;;;3.92;0.73;;;24.20;99.90;;;;;;5004061;28;20050;-70
2023/05/22 12:28:56;;;;;;;0.08;0.08;;;24.20;99.90;;;;;;4997504;28;20072;-70
2023/05/22 12:31:22;;;;;;;0.38;0.32;;;24.10;99.90;;;;;;4995996;28;20112;-70
2023/05/22 12:33:47;;;;;;;0.98;0.98;;;23.50;99.90;;;;;;5001486;28;20046;-69
2023/05/22 12:36:13;;;;;;;0.20;0.20;;;24.00;99.90;;;;;;5005785;28;20042;-70
2023/05/22 12:38:39;;;;;;;0.10;0.10;;;24.20;99.90;;;;;;5006343;28;20041;-70
2023/05/22 12:41:05;;;;;;;0.52;0.52;;;24.20;99.90;;;;;;5004908;28;20042;-70
2023/05/22 12:43:30;;;;;;;7.07;1.30;;;24.50;99.90;;;;;;5009997;28;20112;-69
2023/05/22 12:45:56;;;;;;;0.47;0.47;;;24.70;99.90;;;;;;5010086;28;20077;-70
2023/05/22 12:48:22;;;;;;;1.27;0.47;;;24.70;99.90;;;;;;5001694;28;20088;-69
2023/05/22 12:50:48;;;;;;;4.93;2.25;;;24.80;99.90;;;;;;5007191;28;20647;-70